Time;durP1;ratioP1;P1;durP2;ratioP2;P2;SDS_P1;SDS_P2;PMS_P1;PMS_P2;Temp;Humidity;BMP_temperature;BMP_pressure;BME280_temperature;BME280_humidity;BME280_pressure;Samples;Min_cycle;Max_cycle;Signal;HPM_P1;HPM_P2
2023/03/20 00:01:59;;;;;;;74.82;45.90;;;13.70;99.90;;;;;;5032333;28;20052;-70
2023/03/20 00:05:15;;;;;;;73.60;43.70;;;12.40;99.90;;;;;;5032225;28;20077;-70
2023/03/20 00:08:19;;;;;;;70.90;43.15;;;11.20;99.90;;;;;;5032418;28;20049;-70
2023/03/20 00:11:29;;;;;;;63.95;43.08;;;12.60;99.90;;;;;;5032022;28;20068;-71
2023/03/20 00:14:34;;;;;;;71.43;43.05;;;;;;;;;;5031972;28;20044;-69
2023/03/20 00:17:37;;;;;;;70.03;42.45;;;13.30;99.90;;;;;;5031742;28;20064;-70
2023/03/20 00:20:42;;;;;;;66.03;42.65;;;;;;;;;;5031681;28;20184;-70
2023/03/20 00:23:46;;;;;;;65.47;42.30;;;;;;;;;;5031674;28;20528;-70
2023/03/20 00:26:51;;;;;;;66.00;41.90;;;16.10;99.90;;;;;;5030637;28;20397;-70
2023/03/20 00:29:56;;;;;;;62.80;40.88;;;;;;;;;;5031625;28;20040;-70
2023/03/20 00:33:01;;;;;;;67.55;40.92;;;;;;;;;;5031515;28;20049;-70
2023/03/20 00:36:07;;;;;;;63.90;41.90;;;13.20;99.90;;;;;;5030487;28;20064;-70
2023/03/20 00:39:12;;;;;;;64.57;40.38;;;;;;;;;;5031058;28;20350;-70
2023/03/20 00:42:23;;;;;;;57.47;40.17;;;13.50;99.90;;;;;;5031316;28;20048;-71
2023/03/20 00:45:29;;;;;;;64.57;40.67;;;13.00;99.90;;;;;;5031370;28;20072;-70
2023/03/20 00:48:33;;;;;;;67.43;39.97;;;14.00;99.90;;;;;;5031508;28;20056;-70
2023/03/20 00:51:38;;;;;;;57.13;37.35;;;;;;;;;;5031215;28;20048;-70
2023/03/20 00:54:42;;;;;;;68.22;36.13;;;13.00;99.90;;;;;;5030572;28;20050;-70
2023/03/20 00:57:55;;;;;;;52.15;35.30;;;13.20;99.90;;;;;;5030976;28;20052;-70
2023/03/20 01:01:00;;;;;;;61.40;34.80;;;13.30;99.90;;;;;;5031280;28;20048;-70
2023/03/20 01:04:10;;;;;;;60.03;34.75;;;13.40;99.90;;;;;;5030428;28;20052;-70
2023/03/20 01:07:15;;;;;;;45.88;33.20;;;;;;;;;;5031008;28;20389;-70
2023/03/20 01:10:19;;;;;;;51.85;30.70;;;;;;;;;;5031098;28;20048;-70
2023/03/20 01:13:29;;;;;;;50.58;32.38;;;13.30;99.90;;;;;;5031006;28;20041;-71
2023/03/20 01:16:33;;;;;;;56.53;31.42;;;13.20;99.90;;;;;;5030253;28;20036;-70
2023/03/20 01:19:37;;;;;;;49.45;33.50;;;;;;;;;;5031018;28;20044;-70
2023/03/20 01:22:41;;;;;;;49.25;32.90;;;8.90;99.90;;;;;;5030732;28;20052;-70
2023/03/20 01:25:45;;;;;;;55.60;34.70;;;13.10;99.90;;;;;;5030803;28;20040;-71
2023/03/20 01:29:26;;;;;;;49.65;33.13;;;13.00;99.90;;;;;;5030586;28;20052;-70
2023/03/20 01:32:30;;;;;;;55.03;32.97;;;13.10;99.90;;;;;;5029712;28;20061;-70
2023/03/20 01:35:34;;;;;;;52.70;34.38;;;;;;;;;;5030714;28;20056;-70
2023/03/20 01:38:41;;;;;;;46.08;32.95;;;;;;;;;;5029968;28;20535;-70
2023/03/20 01:41:47;;;;;;;52.45;32.78;;;13.10;99.90;;;;;;5029697;28;20148;-70
2023/03/20 01:44:51;;;;;;;54.42;32.50;;;13.00;99.90;;;;;;5029507;28;20397;-70
2023/03/20 01:47:57;;;;;;;43.83;30.77;;;;;;;;;;5030690;28;20048;-70
2023/03/20 01:51:01;;;;;;;39.50;28.38;;;13.10;99.90;;;;;;5029766;28;20056;-70
2023/03/20 01:54:11;;;;;;;43.88;27.33;;;13.00;99.90;;;;;;5029729;28;20105;-70
2023/03/20 01:57:25;;;;;;;44.85;27.83;;;;;;;;;;5032838;28;20670;-70
2023/03/20 02:00:30;;;;;;;43.40;28.27;;;;;;;;;;5033779;28;20031;-70
2023/03/20 02:03:35;;;;;;;44.10;29.00;;;;;;;;;;5033743;28;20044;-70
2023/03/20 02:07:09;;;;;;;43.03;27.50;;;12.90;99.90;;;;;;5034138;28;20385;-71
2023/03/20 02:10:20;;;;;;;38.33;27.48;;;13.00;99.90;;;;;;5033713;28;20036;-71
2023/03/20 02:13:34;;;;;;;45.88;28.42;;;12.30;99.90;;;;;;5033606;28;20654;-71
2023/03/20 02:16:39;;;;;;;40.40;28.23;;;;;;;;;;5033626;28;20057;-70
2023/03/20 02:20:12;;;;;;;44.58;29.80;;;11.60;99.90;;;;;;5033583;28;20044;-71
2023/03/20 02:23:53;;;;;;;47.53;29.88;;;12.90;99.90;;;;;;5033520;28;20056;-70
2023/03/20 02:27:11;;;;;;;48.33;30.00;;;10.40;99.90;;;;;;5033436;28;20389;-71
2023/03/20 02:30:40;;;;;;;50.13;29.83;;;12.60;99.90;;;;;;5033182;28;20504;-70
2023/03/20 02:34:12;;;;;;;51.95;30.92;;;10.90;99.90;;;;;;5032958;28;20597;-70
2023/03/20 02:37:58;;;;;;;41.78;29.83;;;12.80;99.90;;;;;;5033961;28;20048;-70
2023/03/20 02:41:40;;;;;;;44.30;30.20;;;12.60;99.90;;;;;;5032944;28;20389;-70
2023/03/20 02:45:31;;;;;;;44.70;29.65;;;12.70;99.90;;;;;;5031172;28;20072;-69
2023/03/20 02:49:06;;;;;;;47.90;30.40;;;11.70;99.90;;;;;;5021171;28;20095;-70
2023/03/20 02:52:20;;;;;;;44.50;29.85;;;12.60;99.90;;;;;;5032763;28;20410;-70
2023/03/20 02:55:38;;;;;;;49.60;30.42;;;12.70;99.90;;;;;;5032638;28;20053;-70
2023/03/20 02:58:52;;;;;;;47.42;29.30;;;12.60;99.90;;;;;;5032516;28;20049;-70
2023/03/20 03:02:03;;;;;;;50.28;28.55;;;12.70;99.90;;;;;;5034058;28;20072;-70
2023/03/20 03:05:20;;;;;;;47.43;30.50;;;12.60;99.90;;;;;;5032505;28;20041;-70
2023/03/20 03:08:30;;;;;;;44.03;29.33;;;12.50;99.90;;;;;;5032477;28;20290;-70
2023/03/20 03:11:41;;;;;;;53.25;30.55;;;12.90;99.90;;;;;;5055374;28;20044;-70
2023/03/20 03:14:55;;;;;;;47.72;29.27;;;12.50;99.90;;;;;;5033401;28;20049;-70
2023/03/20 03:18:01;;;;;;;40.25;28.85;;;12.30;99.90;;;;;;5032172;28;20060;-70
2023/03/20 03:21:06;;;;;;;46.58;30.02;;;12.40;99.90;;;;;;5033090;28;20057;-71
2023/03/20 03:24:30;;;;;;;44.80;29.48;;;12.50;99.90;;;;;;5033175;28;20117;-70
2023/03/20 03:27:36;;;;;;;43.20;28.63;;;;;;;;;;5032946;28;20084;-70
2023/03/20 03:30:42;;;;;;;46.20;29.23;;;11.20;99.90;;;;;;5031857;28;20060;-71
2023/03/20 03:33:49;;;;;;;40.58;29.13;;;12.50;99.90;;;;;;5032290;28;20052;-71
2023/03/20 03:37:23;;;;;;;46.42;28.67;;;12.60;99.90;;;;;;5032669;28;20056;-70
2023/03/20 03:40:37;;;;;;;48.35;29.80;;;12.50;99.90;;;;;;5032857;28;20043;-70
2023/03/20 03:43:42;;;;;;;45.83;29.15;;;12.30;99.90;;;;;;5031929;28;20044;-70
2023/03/20 03:47:01;;;;;;;42.63;29.73;;;12.30;99.90;;;;;;5031864;28;20056;-70
2023/03/20 03:50:13;;;;;;;44.60;29.05;;;12.30;99.90;;;;;;5031986;28;20052;-70
2023/03/20 03:53:22;;;;;;;42.63;29.30;;;12.30;99.90;;;;;;5032212;28;20049;-70
2023/03/20 03:56:29;;;;;;;39.60;28.00;;;12.40;99.90;;;;;;5032778;28;20060;-70
2023/03/20 03:59:39;;;;;;;44.65;28.90;;;11.80;99.90;;;;;;5032052;28;20068;-71
2023/03/20 04:02:46;;;;;;;47.40;29.20;;;12.50;99.90;;;;;;5054745;28;20088;-70
2023/03/20 04:05:53;;;;;;;41.70;28.33;;;12.40;99.90;;;;;;5031790;28;20044;-70
2023/03/20 04:08:57;;;;;;;48.17;29.75;;;11.20;99.90;;;;;;5054554;28;20037;-70
2023/03/20 04:12:01;;;;;;;45.28;31.15;;;12.30;99.90;;;;;;5032282;28;20041;-70
2023/03/20 04:15:06;;;;;;;48.40;31.50;;;12.60;99.90;;;;;;5031416;28;20048;-70
2023/03/20 04:18:16;;;;;;;48.60;30.38;;;12.10;99.90;;;;;;5031024;28;20045;-70
2023/03/20 04:21:21;;;;;;;42.03;30.58;;;;;;;;;;5031147;28;20037;-70
2023/03/20 04:24:25;;;;;;;48.63;31.38;;;11.90;99.90;;;;;;5031342;28;20048;-70
2023/03/20 04:27:29;;;;;;;45.95;30.80;;;12.00;99.90;;;;;;5031197;28;20032;-70
2023/03/20 04:30:34;;;;;;;47.28;30.23;;;13.60;99.90;;;;;;5030967;28;20101;-70
2023/03/20 04:34:04;;;;;;;42.20;30.05;;;;;;;;;;5031854;28;20041;-70
2023/03/20 04:37:31;;;;;;;44.90;29.33;;;12.10;99.90;;;;;;5031444;28;20613;-69
2023/03/20 04:40:44;;;;;;;48.05;29.67;;;12.10;99.90;;;;;;5030758;28;20385;-70
2023/03/20 04:43:49;;;;;;;44.25;30.52;;;;;;;;;;5030562;28;20048;-70
2023/03/20 04:46:52;;;;;;;45.17;28.92;;;11.60;99.90;;;;;;5031328;28;20061;-70
2023/03/20 04:49:57;;;;;;;46.03;29.95;;;13.50;99.90;;;;;;5030819;28;20060;-70
2023/03/20 04:53:02;;;;;;;53.22;28.92;;;;;;;;;;5053312;28;20044;-69
2023/03/20 04:56:06;;;;;;;45.70;27.58;;;12.00;99.90;;;;;;5030290;28;20405;-70
2023/03/20 04:59:11;;;;;;;45.20;29.80;;;;;;;;;;5030543;28;20402;-70
2023/03/20 05:02:16;;;;;;;50.70;28.67;;;11.90;99.90;;;;;;5030604;28;20141;-70
2023/03/20 05:05:22;;;;;;;47.15;29.58;;;11.60;99.90;;;;;;5041993;28;20385;-70
2023/03/20 05:08:26;;;;;;;46.22;29.33;;;13.10;99.90;;;;;;5030488;28;20049;-70
2023/03/20 05:11:34;;;;;;;47.90;30.00;;;11.50;99.90;;;;;;5030307;28;20060;-71
2023/03/20 05:14:55;;;;;;;42.92;28.45;;;11.60;99.90;;;;;;5030235;28;20056;-70
2023/03/20 05:18:18;;;;;;;45.25;27.55;;;11.80;99.90;;;;;;5030953;28;20072;-70
2023/03/20 05:21:41;;;;;;;43.80;28.75;;;;;;;;;;5030993;28;20041;-70
2023/03/20 05:25:00;;;;;;;41.17;27.08;;;11.90;99.90;;;;;;5030357;28;20045;-70
2023/03/20 05:28:05;;;;;;;48.40;28.40;;;;;;;;;;5030098;28;20048;-70
2023/03/20 05:31:22;;;;;;;50.42;27.50;;;12.90;99.90;;;;;;5029539;28;20535;-71
2023/03/20 05:34:47;;;;;;;45.42;26.85;;;;;;;;;;5031039;28;20041;-70
2023/03/20 05:37:59;;;;;;;43.45;28.35;;;12.10;99.90;;;;;;5029801;28;20056;-70
2023/03/20 05:41:20;;;;;;;;;;;12.00;99.90;;;;;;5030321;28;20040;-70
2023/03/20 05:44:42;;;;;;;44.08;30.05;;;12.00;99.90;;;;;;5030431;28;20296;-70
2023/03/20 05:47:59;;;;;;;50.15;29.27;;;11.90;99.90;;;;;;5030045;28;20049;-70
2023/03/20 05:51:15;;;;;;;53.33;31.75;;;;;;;;;;5030823;28;20063;-70
2023/03/20 05:54:51;;;;;;;55.38;31.25;;;12.30;99.90;;;;;;5035840;28;20098;-70
2023/03/20 05:58:14;;;;;;;49.47;32.75;;;12.30;99.90;;;;;;5030473;28;20081;-71
2023/03/20 06:01:37;;;;;;;64.63;32.05;;;;;;;;;;5029730;28;20040;-71
2023/03/20 06:05:08;;;;;;;71.97;31.50;;;14.60;99.90;;;;;;5030489;28;20235;-70
2023/03/20 06:08:20;;;;;;;42.72;29.50;;;11.50;99.90;;;;;;5029840;28;20084;-71
2023/03/20 06:11:25;;;;;;;48.72;29.30;;;;;;;;;;5030456;28;20045;-71
2023/03/20 06:14:29;;;;;;;43.92;28.02;;;;;;;;;;5029520;28;20049;-70
2023/03/20 06:17:38;;;;;;;45.25;27.90;;;;;;;;;;5029666;28;20059;-70
2023/03/20 06:20:42;;;;;;;45.28;27.58;;;;;;;;;;5029417;28;20520;-70
2023/03/20 06:23:46;;;;;;;46.35;29.15;;;;;;;;;;5029394;28;20404;-71
2023/03/20 06:26:50;;;;;;;54.20;29.55;;;;;;;;;;5029519;28;20060;-70
2023/03/20 06:29:56;;;;;;;49.22;29.35;;;14.00;99.90;;;;;;5029328;28;20068;-70
2023/03/20 06:33:07;;;;;;;;;;;13.10;99.90;;;;;;5029669;28;20048;-71
2023/03/20 06:36:28;;;;;;;54.15;31.95;;;13.80;99.90;;;;;;5029478;28;19920;-72
2023/03/20 06:39:40;;;;;;;55.10;33.28;;;;;;;;;;5052593;28;20057;-73
2023/03/20 06:42:48;;;;;;;49.75;30.60;;;14.20;99.90;;;;;;5031159;28;20044;-72
2023/03/20 06:45:53;;;;;;;48.22;29.42;;;15.80;99.90;;;;;;5032744;28;20056;-71
2023/03/20 06:49:05;;;;;;;40.20;24.88;;;14.50;99.90;;;;;;5032760;28;20045;-73
2023/03/20 06:52:18;;;;;;;38.95;25.70;;;14.90;99.90;;;;;;5021382;28;20048;-73
2023/03/20 06:55:28;;;;;;;44.42;25.50;;;15.20;99.90;;;;;;5032819;28;20068;-71
2023/03/20 06:58:32;;;;;;;46.17;26.55;;;15.30;99.90;;;;;;5033547;28;20504;-72
2023/03/20 07:01:36;;;;;;;45.03;24.77;;;15.30;99.90;;;;;;5055540;28;20045;-72
2023/03/20 07:04:43;;;;;;;40.55;24.52;;;15.60;99.90;;;;;;5032771;28;20060;-72
2023/03/20 07:07:48;;;;;;;40.85;23.08;;;15.90;99.90;;;;;;5010020;28;20397;-73
2023/03/20 07:10:52;;;;;;;39.28;24.25;;;16.30;99.90;;;;;;5033132;28;20044;-72
2023/03/20 07:13:56;;;;;;;33.80;23.02;;;16.60;99.40;;;;;;5032483;28;20044;-73
2023/03/20 07:17:21;;;;;;;42.03;23.65;;;16.80;99.00;;;;;;5033498;28;20045;-71
2023/03/20 07:20:25;;;;;;;37.75;23.20;;;17.00;98.30;;;;;;5032240;28;20139;-71
2023/03/20 07:23:30;;;;;;;39.88;22.08;;;17.00;98.30;;;;;;5032950;28;20045;-81
2023/03/20 07:26:34;;;;;;;36.30;22.63;;;16.80;98.20;;;;;;5032582;28;20055;-72
2023/03/20 07:29:38;;;;;;;32.45;18.27;;;16.80;98.10;;;;;;5032064;28;20124;-71
2023/03/20 07:32:48;;;;;;;27.38;16.88;;;16.90;98.10;;;;;;5032294;28;20056;-72
2023/03/20 07:35:53;;;;;;;27.05;17.33;;;17.00;97.80;;;;;;5032000;28;20044;-73
2023/03/20 07:38:57;;;;;;;24.20;10.88;;;17.10;97.20;;;;;;5034192;28;20083;-72
2023/03/20 07:42:04;;;;;;;20.20;10.35;;;17.10;96.70;;;;;;5032135;28;20040;-72
2023/03/20 07:45:21;;;;;;;18.80;11.55;;;17.00;96.20;;;;;;5031692;28;20056;-70
2023/03/20 07:48:24;;;;;;;32.50;15.45;;;16.90;96.50;;;;;;5032983;28;20504;-75
2023/03/20 07:51:28;;;;;;;30.63;15.63;;;16.80;96.70;;;;;;5054973;28;20053;-73
2023/03/20 07:54:34;;;;;;;25.13;13.05;;;16.60;97.20;;;;;;5030938;28;20049;-72
2023/03/20 07:57:38;;;;;;;28.15;16.33;;;16.50;97.10;;;;;;5032288;28;20072;-72
2023/03/20 08:00:42;;;;;;;21.58;15.07;;;16.50;97.30;;;;;;5031055;28;20060;-73
2023/03/20 08:03:46;;;;;;;25.08;13.73;;;16.40;97.40;;;;;;5032596;28;20052;-73
2023/03/20 08:06:50;;;;;;;22.38;13.88;;;16.30;97.50;;;;;;5031668;28;20052;-73
2023/03/20 08:09:54;;;;;;;31.80;12.98;;;16.10;97.80;;;;;;5032165;28;20056;-72
2023/03/20 08:12:59;;;;;;;25.20;12.65;;;16.10;98.20;;;;;;5032310;28;20052;-72
2023/03/20 08:16:03;;;;;;;22.77;12.73;;;16.00;98.00;;;;;;5031960;28;20036;-71
2023/03/20 08:19:07;;;;;;;20.85;11.77;;;16.10;98.00;;;;;;5031883;28;20060;-73
2023/03/20 08:22:11;;;;;;;21.63;12.05;;;16.20;98.00;;;;;;5031297;28;20044;-71
2023/03/20 08:25:16;;;;;;;22.67;11.95;;;16.50;97.80;;;;;;5031915;28;20040;-73
2023/03/20 08:28:20;;;;;;;17.70;9.75;;;16.80;97.40;;;;;;5031880;28;20052;-73
2023/03/20 08:31:25;;;;;;;18.88;10.13;;;17.10;97.30;;;;;;5031738;28;20401;-74
2023/03/20 08:34:31;;;;;;;15.73;7.50;;;17.30;96.70;;;;;;5032070;28;20040;-72
2023/03/20 08:37:36;;;;;;;12.43;5.72;;;17.30;96.40;;;;;;5031743;28;20048;-73
2023/03/20 08:40:41;;;;;;;27.48;7.22;;;17.30;96.20;;;;;;5031636;28;20049;-72
2023/03/20 08:43:46;;;;;;;26.20;6.85;;;17.30;95.80;;;;;;5031263;28;20044;-71
2023/03/20 08:46:50;;;;;;;24.17;7.43;;;17.30;95.70;;;;;;5031474;28;20056;-72
2023/03/20 08:49:54;;;;;;;20.42;6.60;;;17.20;95.20;;;;;;5031898;28;20048;-73
2023/03/20 08:52:59;;;;;;;18.00;5.72;;;17.10;95.30;;;;;;5019554;28;20068;-73
2023/03/20 08:56:04;;;;;;;19.30;6.70;;;17.00;95.50;;;;;;5031458;28;20044;-72
2023/03/20 08:59:08;;;;;;;28.20;6.22;;;17.00;95.40;;;;;;5031286;28;20052;-72
2023/03/20 09:02:12;;;;;;;18.30;4.97;;;17.00;95.30;;;;;;5031307;28;20044;-72
2023/03/20 09:05:16;;;;;;;15.45;5.80;;;16.90;95.20;;;;;;5030408;28;20052;-72
2023/03/20 09:08:20;;;;;;;16.10;5.78;;;17.00;95.30;;;;;;5031139;28;20041;-72
2023/03/20 09:11:25;;;;;;;11.98;5.03;;;17.00;95.40;;;;;;5031138;28;20052;-72
2023/03/20 09:14:29;;;;;;;17.67;5.65;;;17.10;95.40;;;;;;5031014;28;20048;-72
2023/03/20 09:17:33;;;;;;;17.50;5.18;;;17.10;95.40;;;;;;5030914;28;20620;-73
2023/03/20 09:20:37;;;;;;;23.50;7.20;;;17.00;95.50;;;;;;5031037;28;20048;-73
2023/03/20 09:23:41;;;;;;;15.10;6.80;;;16.90;95.70;;;;;;5030189;28;20495;-71
2023/03/20 09:26:45;;;;;;;13.10;6.50;;;16.90;95.90;;;;;;5031133;28;20052;-72
2023/03/20 09:29:49;;;;;;;21.55;7.75;;;16.70;96.10;;;;;;5031345;28;20048;-72
2023/03/20 09:32:54;;;;;;;17.20;7.32;;;16.60;96.20;;;;;;5030898;28;20044;-72
2023/03/20 09:35:57;;;;;;;13.40;6.97;;;16.60;96.50;;;;;;5031550;28;20047;-73
2023/03/20 09:39:03;;;;;;;22.08;7.75;;;16.50;96.70;;;;;;5031286;28;20060;-72
2023/03/20 09:42:33;;;;;;;18.40;7.55;;;16.40;96.70;;;;;;5031657;28;20420;-73
2023/03/20 09:45:56;;;;;;;17.58;8.77;;;16.40;97.00;;;;;;5029995;28;20061;-73
2023/03/20 09:49:22;;;;;;;29.38;9.05;;;16.30;97.30;;;;;;5030761;28;20044;-72
2023/03/20 09:52:32;;;;;;;24.55;9.55;;;16.30;97.60;;;;;;5030491;28;20045;-72
2023/03/20 09:55:38;;;;;;;27.55;10.50;;;16.20;97.90;;;;;;5030482;28;20037;-73
2023/03/20 09:58:49;;;;;;;32.60;10.57;;;16.10;97.90;;;;;;5030511;28;20081;-73
2023/03/20 10:02:01;;;;;;;24.00;9.40;;;16.10;98.10;;;;;;5030517;28;20389;-71
2023/03/20 10:05:11;;;;;;;;;;;14.50;97.80;;;;;;5031074;28;20068;-71
2023/03/20 10:08:21;;;;;;;27.63;9.98;;;16.00;98.30;;;;;;5030582;28;20356;-72
2023/03/20 10:12:03;;;;;;;17.90;9.95;;;16.00;98.40;;;;;;5030277;28;20045;-72
2023/03/20 10:15:32;;;;;;;31.77;11.60;;;15.90;98.60;;;;;;5030365;28;20052;-72
2023/03/20 10:18:42;;;;;;;34.90;12.40;;;15.90;98.90;;;;;;5033816;28;20068;-71
2023/03/20 10:21:48;;;;;;;25.58;11.57;;;15.90;99.00;;;;;;5033645;28;20424;-70
2023/03/20 10:25:11;;;;;;;22.73;12.43;;;15.90;99.10;;;;;;5033510;28;20204;-67
2023/03/20 10:28:25;;;;;;;23.00;11.30;;;15.90;99.10;;;;;;5034237;28;20040;-73
2023/03/20 10:31:42;;;;;;;23.35;10.90;;;15.90;99.00;;;;;;5034075;28;20151;-71
2023/03/20 10:35:09;;;;;;;26.92;12.23;;;15.80;99.20;;;;;;5033375;28;20049;-71
2023/03/20 10:38:38;;;;;;;21.63;12.23;;;15.90;99.40;;;;;;5033775;28;20060;-70
2023/03/20 10:41:53;;;;;;;32.40;14.02;;;15.80;99.60;;;;;;5033941;28;20037;-75
2023/03/20 10:45:04;;;;;;;23.73;13.27;;;15.80;99.70;;;;;;5033630;28;20206;-74
2023/03/20 10:48:15;;;;;;;;;;;15.90;99.90;;;;;;5034124;28;20052;-70
2023/03/20 10:51:25;;;;;;;27.85;13.57;;;15.80;99.90;;;;;;5032860;28;19909;-75
2023/03/20 10:54:41;;;;;;;22.80;11.85;;;15.90;99.90;;;;;;5033408;28;20401;-75
2023/03/20 10:57:58;;;;;;;27.00;12.18;;;15.90;99.90;;;;;;5033183;28;20051;-75
2023/03/20 11:01:03;;;;;;;17.05;9.52;;;16.00;99.90;;;;;;5033249;28;20052;-75
2023/03/20 11:04:07;;;;;;;22.92;10.95;;;16.00;99.90;;;;;;5033431;28;20044;-74
2023/03/20 11:07:18;;;;;;;21.75;10.90;;;16.20;99.90;;;;;;5033741;28;20397;-76
2023/03/20 11:10:25;;;;;;;;;;;16.20;99.80;;;;;;5033751;28;20048;-74
2023/03/20 11:13:32;;;;;;;21.23;11.82;;;16.20;99.90;;;;;;5031711;28;19976;-75
2023/03/20 11:16:37;;;;;;;18.38;10.27;;;16.20;99.90;;;;;;5031507;28;20044;-74
2023/03/20 11:19:41;;;;;;;20.75;13.07;;;16.20;99.90;;;;;;5031096;28;20061;-73
2023/03/20 11:22:50;;;;;;;28.90;14.93;;;16.30;99.90;;;;;;5031909;28;20048;-73
2023/03/20 11:26:03;;;;;;;19.10;11.60;;;16.30;99.90;;;;;;5032927;28;20064;-74
2023/03/20 11:29:25;;;;;;;16.85;9.35;;;16.30;99.90;;;;;;5031771;28;20052;-75
2023/03/20 11:32:30;;;;;;;;;;;16.30;99.90;;;;;;5033372;28;20052;-76
2023/03/20 11:35:34;;;;;;;34.55;19.75;;;16.40;99.90;;;;;;5032761;28;19909;-74
2023/03/20 11:38:45;;;;;;;30.92;20.30;;;16.30;99.90;;;;;;5032551;28;20520;-74
2023/03/20 11:41:52;;;;;;;26.50;16.95;;;16.20;99.90;;;;;;5032581;28;20043;-74
2023/03/20 11:45:14;;;;;;;28.98;19.35;;;16.20;99.90;;;;;;5032358;28;20044;-75
2023/03/20 11:48:20;;;;;;;40.53;21.17;;;16.10;99.90;;;;;;5031782;28;20044;-74
2023/03/20 11:51:25;;;;;;;33.60;19.50;;;16.00;99.90;;;;;;5032663;28;20406;-74
2023/03/20 11:54:30;;;;;;;33.40;19.90;;;15.90;99.90;;;;;;5032576;28;20052;-74
2023/03/20 11:57:40;;;;;;;33.15;20.45;;;15.90;99.90;;;;;;5031538;28;20512;-74
2023/03/20 12:00:48;;;;;;;33.85;20.83;;;15.90;99.90;;;;;;5032329;28;20057;-75
2023/03/20 12:04:15;;;;;;;33.53;18.20;;;15.80;99.90;;;;;;5032597;28;20048;-75
2023/03/20 12:07:25;;;;;;;30.70;18.80;;;15.90;99.90;;;;;;5035500;28;20044;-74
2023/03/20 12:10:39;;;;;;;31.20;18.95;;;15.80;99.90;;;;;;5031950;28;20044;-75
2023/03/20 12:13:46;;;;;;;38.42;18.88;;;15.90;99.90;;;;;;5032282;28;20044;-73
2023/03/20 12:17:00;;;;;;;33.00;19.02;;;15.90;99.90;;;;;;5031894;28;20401;-73
2023/03/20 12:20:15;;;;;;;38.15;18.98;;;15.80;99.90;;;;;;5031818;28;20072;-74
2023/03/20 12:23:41;;;;;;;29.90;20.13;;;15.80;99.90;;;;;;5031926;28;20512;-74
2023/03/20 12:26:55;;;;;;;35.15;21.92;;;15.80;99.90;;;;;;5031694;28;20041;-74
2023/03/20 12:30:15;;;;;;;33.45;22.40;;;15.80;99.90;;;;;;5032246;28;20394;-74
2023/03/20 12:33:56;;;;;;;34.38;21.77;;;15.70;99.90;;;;;;5032043;28;20049;-74
2023/03/20 12:37:01;;;;;;;;;;;15.70;99.90;;;;;;5032609;28;20044;-75
2023/03/20 12:40:05;;;;;;;24.20;17.38;;;15.60;99.90;;;;;;5031391;28;19917;-74
2023/03/20 12:43:29;;;;;;;28.00;18.85;;;16.40;99.90;;;;;;5031427;28;20506;-74
2023/03/20 12:46:42;;;;;;;26.83;17.27;;;15.60;99.90;;;;;;5031424;28;20089;-74
2023/03/20 12:49:52;;;;;;;29.30;17.95;;;15.60;99.90;;;;;;5031781;28;20048;-73
2023/03/20 12:53:20;;;;;;;23.98;16.17;;;15.60;99.90;;;;;;5031320;28;20056;-74
2023/03/20 12:56:27;;;;;;;23.92;15.77;;;15.70;99.90;;;;;;5031792;28;20040;-74
2023/03/20 12:59:53;;;;;;;16.88;12.82;;;15.80;99.90;;;;;;5031321;28;20117;-71
2023/03/20 13:03:08;;;;;;;19.50;12.77;;;15.80;99.90;;;;;;5031573;28;20151;-73
2023/03/20 13:06:35;;;;;;;17.92;12.10;;;15.80;99.90;;;;;;5031689;28;20052;-72
2023/03/20 13:10:04;;;;;;;24.15;13.95;;;15.80;99.90;;;;;;5031362;28;20401;-74
2023/03/20 13:13:23;;;;;;;17.70;10.38;;;15.80;99.90;;;;;;5030317;28;20040;-74
2023/03/20 13:16:52;;;;;;;16.52;8.88;;;15.80;99.90;;;;;;5026765;28;20061;-75
2023/03/20 13:20:02;;;;;;;13.43;8.77;;;15.70;99.90;;;;;;5029498;28;20081;-73
2023/03/20 13:23:18;;;;;;;16.50;9.55;;;15.60;99.90;;;;;;5029944;28;20070;-73
2023/03/20 13:26:37;;;;;;;13.40;7.93;;;15.60;99.90;;;;;;5030265;28;20060;-74
2023/03/20 13:30:25;;;;;;;16.48;7.55;;;15.60;99.90;;;;;;5031074;28;20044;-74
2023/03/20 13:33:51;;;;;;;12.65;7.50;;;15.60;99.90;;;;;;5030546;28;20033;-74
2023/03/20 13:37:00;;;;;;;11.30;7.88;;;15.50;99.90;;;;;;5030684;28;20048;-74
2023/03/20 13:40:10;;;;;;;16.80;8.70;;;15.70;99.90;;;;;;5030551;28;20064;-74
2023/03/20 13:43:26;;;;;;;15.50;9.55;;;15.50;99.90;;;;;;5030742;28;20045;-73
2023/03/20 13:46:30;;;;;;;17.20;9.85;;;15.50;99.90;;;;;;5030578;28;20052;-75
2023/03/20 13:49:56;;;;;;;24.88;9.25;;;15.50;99.90;;;;;;5030612;28;20056;-73
2023/03/20 13:53:12;;;;;;;18.75;8.68;;;15.50;99.90;;;;;;5035631;28;20044;-76
2023/03/20 13:56:47;;;;;;;25.88;9.43;;;15.50;99.90;;;;;;5037596;28;20056;-73
2023/03/20 14:00:04;;;;;;;19.95;8.27;;;15.50;99.90;;;;;;5037332;28;20405;-74
2023/03/20 14:03:15;;;;;;;21.55;8.35;;;15.50;99.90;;;;;;5037544;28;20052;-69
2023/03/20 14:06:48;;;;;;;14.88;8.27;;;15.50;99.90;;;;;;5037267;28;20056;-72
2023/03/20 14:09:53;;;;;;;24.67;8.60;;;15.70;99.90;;;;;;5037287;28;20044;-70
2023/03/20 14:13:08;;;;;;;19.83;7.75;;;15.50;99.90;;;;;;5036911;28;20060;-71
2023/03/20 14:16:16;;;;;;;17.50;9.10;;;15.50;99.90;;;;;;5036372;28;20041;-73
2023/03/20 14:19:24;;;;;;;18.50;7.95;;;15.50;99.90;;;;;;5037152;28;20064;-72
2023/03/20 14:22:33;;;;;;;23.67;8.05;;;15.50;99.90;;;;;;5037174;28;20045;-71
2023/03/20 14:25:42;;;;;;;21.63;7.60;;;15.50;99.90;;;;;;5037277;28;20044;-71
2023/03/20 14:28:52;;;;;;;25.33;8.43;;;15.50;99.90;;;;;;5036961;28;20068;-72
2023/03/20 14:32:11;;;;;;;21.20;6.80;;;15.50;99.90;;;;;;5037064;28;20060;-71
2023/03/20 14:35:28;;;;;;;15.38;5.80;;;15.60;99.90;;;;;;5036954;28;20041;-71
2023/03/20 14:38:55;;;;;;;27.15;6.05;;;15.60;99.90;;;;;;5035668;28;20040;-71
2023/03/20 14:42:13;;;;;;;12.00;5.60;;;15.60;99.90;;;;;;5037042;28;20052;-73
2023/03/20 14:45:34;;;;;;;10.48;4.70;;;15.60;99.90;;;;;;5036628;28;20504;-69
2023/03/20 14:48:51;;;;;;;14.48;5.70;;;15.60;99.90;;;;;;5037025;28;20425;-73
2023/03/20 14:52:18;;;;;;;13.35;5.63;;;15.60;99.90;;;;;;5024900;28;20044;-71
2023/03/20 14:55:26;;;;;;;9.65;5.50;;;15.60;99.90;;;;;;5036541;28;20044;-73
2023/03/20 14:58:45;;;;;;;9.95;6.03;;;15.60;99.90;;;;;;5035619;28;20079;-73
2023/03/20 15:01:52;;;;;;;12.27;6.07;;;15.60;99.90;;;;;;5036422;28;20048;-71
2023/03/20 15:04:56;;;;;;;9.68;5.55;;;15.50;99.90;;;;;;5033768;28;20045;-72
2023/03/20 15:08:07;;;;;;;11.32;5.60;;;15.50;99.90;;;;;;5033754;28;20147;-71
2023/03/20 15:11:14;;;;;;;13.18;6.10;;;15.50;99.90;;;;;;5032526;28;20044;-71
2023/03/20 15:14:26;;;;;;;11.70;5.57;;;15.50;99.90;;;;;;5032299;28;20048;-72
2023/03/20 15:17:37;;;;;;;12.75;6.20;;;15.40;99.90;;;;;;5032804;28;20397;-72
2023/03/20 15:20:44;;;;;;;11.95;8.50;;;15.40;99.90;;;;;;5032059;28;20060;-74
2023/03/20 15:23:48;;;;;;;11.70;5.95;;;15.40;99.90;;;;;;5033081;28;20037;-73
2023/03/20 15:26:54;;;;;;;15.15;7.22;;;15.30;99.90;;;;;;5033157;28;20095;-73
2023/03/20 15:30:01;;;;;;;18.20;7.18;;;15.20;99.90;;;;;;5032882;28;20044;-70
2023/03/20 15:33:11;;;;;;;16.13;7.32;;;15.20;99.90;;;;;;5032979;28;20050;-72
2023/03/20 15:36:16;;;;;;;15.93;7.13;;;15.10;99.90;;;;;;5033002;28;20040;-73
2023/03/20 15:39:23;;;;;;;22.13;10.18;;;15.20;99.90;;;;;;5032801;28;20053;-70
2023/03/20 15:42:30;;;;;;;16.90;8.07;;;15.20;99.90;;;;;;5032840;28;20109;-72
2023/03/20 15:45:35;;;;;;;16.60;8.57;;;15.20;99.90;;;;;;5032966;28;20437;-73
2023/03/20 15:48:39;;;;;;;14.02;8.05;;;15.10;99.90;;;;;;5033000;28;20040;-75
2023/03/20 15:51:43;;;;;;;20.50;8.13;;;14.30;99.90;;;;;;5033487;28;20049;-67
2023/03/20 15:54:48;;;;;;;15.90;7.43;;;15.00;99.90;;;;;;5032544;28;20048;-71
2023/03/20 15:57:56;;;;;;;21.48;8.40;;;15.00;99.90;;;;;;5032698;28;20052;-68
2023/03/20 16:01:01;;;;;;;14.95;8.27;;;15.00;99.90;;;;;;5032878;28;20409;-71
2023/03/20 16:04:05;;;;;;;12.13;7.32;;;14.90;99.90;;;;;;5033179;28;20045;-69
2023/03/20 16:07:25;;;;;;;27.02;9.20;;;15.00;99.90;;;;;;5033119;28;20056;-72
2023/03/20 16:10:34;;;;;;;28.10;9.85;;;15.00;99.90;;;;;;5032501;28;20049;-71
2023/03/20 16:13:41;;;;;;;28.15;9.10;;;15.00;99.90;;;;;;5032592;28;20048;-70
2023/03/20 16:16:49;;;;;;;21.05;9.00;;;15.00;99.90;;;;;;5032069;28;20036;-71
2023/03/20 16:19:52;;;;;;;20.92;9.18;;;15.00;99.90;;;;;;5032117;28;20156;-73
2023/03/20 16:23:01;;;;;;;26.85;13.73;;;14.60;99.90;;;;;;5032483;28;20449;-74
2023/03/20 16:26:07;;;;;;;23.30;9.82;;;14.80;99.90;;;;;;5032546;28;20496;-69
2023/03/20 16:29:14;;;;;;;20.38;9.85;;;14.90;99.90;;;;;;5031956;28;20048;-70
2023/03/20 16:32:34;;;;;;;18.45;10.57;;;14.80;99.90;;;;;;5031865;28;20608;-70